Terminal Aerodrome Forecast
Issued by NWS

Home | Current Version | Previous Version | Text Only | Print | Product List | Glossary On
Versions: 1 2 3 4 5 6 7 8 9 10 11 12 13 14 15 16 17 18 19
000
FTAK31 PANC 231138
TAFAHO
TAF
PAHO 231138Z 2312/2412 07009KT P6SM OVC100
     FM231300 07010KT P6SM -RA BKN040
     FM241100 06003KT P6SM -RA OVC025=

USA.gov is the U.S. government's official web portal to all federal, state and local government web resources and services.